Time;durP1;ratioP1;P1;durP2;ratioP2;P2;SDS_P1;SDS_P2;PMS_P1;PMS_P2;Temp;Humidity;BMP_temperature;BMP_pressure;BME280_temperature;BME280_humidity;BME280_pressure;Samples;Min_cycle;Max_cycle;Signal;HPM_P1;HPM_P2
2021/06/04 00:00:44;;;;;;;3.20;2.80;;;21.30;99.90;;;;;;5089213;28;20465;-77
2021/06/04 00:03:16;;;;;;;3.43;2.90;;;21.30;99.90;;;;;;5087931;28;20970;-77
2021/06/04 00:05:47;;;;;;;3.37;3.03;;;21.30;99.90;;;;;;5089251;28;20989;-77
2021/06/04 00:08:16;;;;;;;3.20;2.90;;;21.30;99.90;;;;;;5087847;28;20949;-78
2021/06/04 00:10:47;;;;;;;5.70;3.37;;;21.30;99.90;;;;;;5087364;28;20535;-77
2021/06/04 00:13:20;;;;;;;3.70;3.40;;;21.30;99.90;;;;;;5086683;28;22646;-78
2021/06/04 00:15:51;;;;;;;2.87;2.67;;;21.30;99.90;;;;;;5088504;28;20471;-78
2021/06/04 00:18:19;;;;;;;3.50;3.30;;;21.30;99.90;;;;;;5087378;28;20496;-77
2021/06/04 00:20:47;;;;;;;4.00;3.53;;;21.30;99.90;;;;;;5088267;28;21220;-77
2021/06/04 00:23:14;;;;;;;3.30;3.10;;;21.20;99.90;;;;;;5120095;27;20511;-78
2021/06/04 00:25:42;;;;;;;3.13;2.90;;;21.20;99.90;;;;;;5087660;28;20478;-78
2021/06/04 00:28:10;;;;;;;3.17;2.87;;;21.10;99.90;;;;;;5085831;28;20497;-77
2021/06/04 00:30:38;;;;;;;3.17;2.97;;;21.00;99.90;;;;;;5087229;28;20473;-78
2021/06/04 00:33:07;;;;;;;4.13;3.67;;;21.00;99.90;;;;;;5084787;28;20458;-79
2021/06/04 00:35:37;;;;;;;4.93;3.90;;;21.00;99.90;;;;;;5079397;28;20993;-77
2021/06/04 00:38:06;;;;;;;3.93;3.53;;;21.00;99.90;;;;;;5087557;28;20454;-77
2021/06/04 00:40:36;;;;;;;2.70;2.50;;;20.90;99.90;;;;;;5088522;28;20466;-77
2021/06/04 00:43:05;;;;;;;4.67;3.33;;;21.00;99.90;;;;;;5087883;28;20564;-80
2021/06/04 00:45:37;;;;;;;3.40;2.87;;;21.00;99.90;;;;;;5084089;28;21088;-78
2021/06/04 00:48:08;;;;;;;3.73;3.43;;;21.00;99.90;;;;;;5086477;28;20481;-76
2021/06/04 00:50:39;;;;;;;4.13;3.80;;;20.90;99.90;;;;;;5087004;28;20502;-77
2021/06/04 00:53:07;;;;;;;3.50;3.30;;;21.00;99.90;;;;;;5080765;28;20450;-77
2021/06/04 00:55:37;;;;;;;3.37;3.17;;;20.90;99.90;;;;;;5086982;28;20474;-77
2021/06/04 00:58:06;;;;;;;3.30;3.10;;;20.80;99.90;;;;;;5085650;28;20984;-80
2021/06/04 01:00:36;;;;;;;3.10;2.90;;;20.90;99.90;;;;;;5085489;28;20539;-77
2021/06/04 01:03:05;;;;;;;4.13;3.83;;;20.90;99.90;;;;;;5074356;28;20529;-77
2021/06/04 01:05:37;;;;;;;3.50;3.27;;;20.90;99.90;;;;;;5087659;28;20478;-78
2021/06/04 01:08:18;;;;;;;3.17;2.97;;;20.80;99.90;;;;;;5087178;28;20508;-77
2021/06/04 01:11:00;;;;;;;3.80;3.43;;;20.80;99.90;;;;;;5085563;28;20470;-77
2021/06/04 01:13:32;;;;;;;3.03;2.80;;;20.80;99.90;;;;;;5086287;28;20502;-75
2021/06/04 01:16:13;;;;;;;3.77;3.47;;;20.80;99.90;;;;;;5086107;28;20473;-77
2021/06/04 01:18:58;;;;;;;2.97;2.77;;;20.70;99.90;;;;;;5086571;28;20976;-76
2021/06/04 01:21:36;;;;;;;3.90;3.47;;;20.70;99.90;;;;;;5076318;28;20456;-78
2021/06/04 01:24:13;;;;;;;3.33;3.03;;;20.70;99.90;;;;;;5076287;28;20490;-80
2021/06/04 01:26:46;;;;;;;3.60;2.80;;;20.70;99.90;;;;;;5087847;28;20546;-78
2021/06/04 01:29:17;;;;;;;3.77;3.40;;;20.70;99.90;;;;;;5084935;28;20507;-78
2021/06/04 01:31:49;;;;;;;3.80;3.50;;;20.70;99.90;;;;;;5077386;28;20891;-78
2021/06/04 01:34:20;;;;;;;3.27;3.07;;;20.60;99.90;;;;;;5087011;28;21026;-76
2021/06/04 01:36:51;;;;;;;3.27;3.07;;;20.60;99.90;;;;;;5088584;28;21010;-80
2021/06/04 01:39:24;;;;;;;4.10;3.70;;;20.60;99.90;;;;;;5085485;28;20904;-81
2021/06/04 01:41:55;;;;;;;3.43;3.10;;;20.60;99.90;;;;;;5087311;28;20515;-78
2021/06/04 01:44:28;;;;;;;2.80;2.60;;;20.60;99.90;;;;;;5083420;28;20481;-80
2021/06/04 01:47:02;;;;;;;3.33;3.13;;;20.50;99.90;;;;;;5087592;28;20485;-78
2021/06/04 01:49:35;;;;;;;3.30;3.00;;;20.50;99.90;;;;;;5084676;28;20510;-78
2021/06/04 01:52:10;;;;;;;2.77;2.60;;;20.50;99.90;;;;;;5087101;28;20466;-78
2021/06/04 01:54:44;;;;;;;3.30;3.07;;;20.50;99.90;;;;;;5082986;28;21054;-79
2021/06/04 01:57:17;;;;;;;3.47;3.10;;;20.50;99.90;;;;;;5083211;28;21177;-78
2021/06/04 01:59:49;;;;;;;2.97;2.77;;;20.50;99.90;;;;;;5087779;28;20446;-78
2021/06/04 02:02:17;;;;;;;3.47;3.17;;;20.50;99.90;;;;;;5089596;28;20451;-78
2021/06/04 02:04:47;;;;;;;3.07;2.87;;;20.50;99.90;;;;;;5090688;28;20999;-77
2021/06/04 02:07:18;;;;;;;3.70;3.40;;;20.40;99.90;;;;;;5091547;28;20941;-77
2021/06/04 02:09:47;;;;;;;3.60;3.30;;;20.40;99.90;;;;;;5088722;28;20453;-78
2021/06/04 02:12:17;;;;;;;2.70;2.50;;;20.40;99.90;;;;;;5091636;28;20518;-78
2021/06/04 02:14:48;;;;;;;3.07;2.87;;;20.40;99.90;;;;;;5090850;28;21010;-79
2021/06/04 02:17:24;;;;;;;2.93;2.63;;;20.40;99.90;;;;;;5092315;28;20984;-77
2021/06/04 02:20:01;;;;;;;3.63;3.30;;;20.40;99.90;;;;;;5090783;28;20551;-78
2021/06/04 02:22:36;;;;;;;3.43;3.23;;;20.30;99.90;;;;;;5091543;28;20506;-79
2021/06/04 02:25:11;;;;;;;3.53;3.23;;;20.30;99.90;;;;;;5091162;28;20509;-77
2021/06/04 02:27:44;;;;;;;3.20;2.90;;;20.30;99.90;;;;;;5091730;28;20453;-77
2021/06/04 02:30:18;;;;;;;3.33;3.03;;;20.30;99.90;;;;;;5090005;28;20454;-75
2021/06/04 02:32:53;;;;;;;3.00;2.77;;;20.30;1.00;;;;;;5092357;28;20461;-77
2021/06/04 02:35:27;;;;;;;3.60;3.30;;;20.30;1.00;;;;;;5091856;28;20461;-79
2021/06/04 02:38:01;;;;;;;3.20;3.00;;;20.30;1.00;;;;;;5091668;28;20502;-78
2021/06/04 02:40:31;;;;;;;4.07;2.90;;;20.30;1.00;;;;;;5085017;28;20457;-78
2021/06/04 02:43:06;;;;;;;3.43;3.17;;;20.30;1.00;;;;;;5091975;28;20446;-79
2021/06/04 02:45:38;;;;;;;4.50;4.10;;;20.30;1.00;;;;;;5089193;28;20526;-76
2021/06/04 02:48:09;;;;;;;14.37;8.10;;;20.40;1.00;;;;;;5090890;28;21059;-79
2021/06/04 02:50:40;;;;;;;20.60;10.97;;;20.30;1.00;;;;;;5083554;28;20929;-75
2021/06/04 02:53:25;;;;;;;14.10;8.27;;;20.30;1.00;;;;;;5090559;28;20852;-77
2021/06/04 02:56:19;;;;;;;6.33;4.20;;;20.30;1.00;;;;;;5087644;28;20469;-77
2021/06/04 02:58:50;;;;;;;4.53;4.13;;;20.20;1.00;;;;;;5076591;28;20481;-77
2021/06/04 03:01:19;;;;;;;4.93;3.53;;;20.20;1.00;;;;;;5090034;28;20495;-79
2021/06/04 03:03:51;;;;;;;5.37;4.00;;;20.30;1.00;;;;;;5090117;28;20442;-77
2021/06/04 03:06:23;;;;;;;6.07;4.20;;;20.30;1.00;;;;;;5086645;28;20510;-77
2021/06/04 03:08:51;;;;;;;4.60;3.40;;;20.30;1.00;;;;;;5086698;28;21025;-78
2021/06/04 03:11:20;;;;;;;3.20;2.70;;;20.20;1.00;;;;;;5089639;28;20723;-77
2021/06/04 03:13:50;;;;;;;2.07;1.93;;;20.30;1.00;;;;;;5085841;28;20827;-77
2021/06/04 03:16:21;;;;;;;2.90;2.70;;;20.30;99.90;;;;;;5090334;28;20503;-76
2021/06/04 03:18:52;;;;;;;3.07;2.87;;;20.30;99.90;;;;;;5089992;28;20454;-78
2021/06/04 03:21:24;;;;;;;2.73;2.53;;;20.20;99.90;;;;;;5090287;28;20481;-77
2021/06/04 03:23:52;;;;;;;3.80;3.50;;;20.20;1.00;;;;;;5089543;28;20941;-77
2021/06/04 03:26:22;;;;;;;4.23;3.77;;;20.20;1.00;;;;;;5084636;28;20858;-77
2021/06/04 03:28:53;;;;;;;4.03;3.73;;;20.20;1.00;;;;;;5086085;28;20968;-75
2021/06/04 03:31:22;;;;;;;7.93;3.73;;;20.20;1.00;;;;;;5088766;28;20437;-76
2021/06/04 03:33:50;;;;;;;3.63;3.33;;;20.20;1.00;;;;;;5089218;28;20434;-77
2021/06/04 03:36:21;;;;;;;3.50;3.20;;;20.30;1.00;;;;;;5089729;28;20511;-79
2021/06/04 03:38:49;;;;;;;3.70;3.40;;;20.30;1.00;;;;;;5088889;28;20469;-80
2021/06/04 03:41:21;;;;;;;3.57;3.27;;;20.30;1.00;;;;;;5087307;28;20507;-79
2021/06/04 03:43:50;;;;;;;4.53;3.17;;;20.30;1.00;;;;;;5085568;28;20458;-77
2021/06/04 03:46:18;;;;;;;4.10;3.67;;;20.30;1.00;;;;;;5088951;28;20965;-76
2021/06/04 03:48:46;;;;;;;3.90;3.20;;;20.30;1.00;;;;;;5087446;28;20833;-78
2021/06/04 03:51:17;;;;;;;3.70;3.40;;;20.30;1.00;;;;;;5089600;28;20454;-80
2021/06/04 03:53:45;;;;;;;3.00;2.80;;;20.30;1.00;;;;;;5087758;28;20515;-78
2021/06/04 03:56:14;;;;;;;4.40;3.30;;;20.30;1.00;;;;;;5089492;28;20458;-77
2021/06/04 03:58:43;;;;;;;3.77;3.00;;;20.30;1.00;;;;;;5087673;28;20452;-80
2021/06/04 04:01:15;;;;;;;3.40;3.10;;;20.40;1.00;;;;;;5088657;28;20446;-77
2021/06/04 04:03:43;;;;;;;2.93;2.73;;;20.40;1.00;;;;;;5086458;28;20449;-77
2021/06/04 04:06:11;;;;;;;3.10;2.80;;;20.40;1.00;;;;;;5090131;28;20522;-77
2021/06/04 04:08:39;;;;;;;3.47;2.60;;;20.40;1.00;;;;;;5119912;27;21160;-77
2021/06/04 04:11:06;;;;;;;3.37;3.17;;;20.40;1.00;;;;;;5089262;28;20457;-79
2021/06/04 04:13:34;;;;;;;4.20;3.47;;;20.30;1.00;;;;;;5088366;28;21188;-79
2021/06/04 04:16:03;;;;;;;3.03;2.80;;;20.40;1.00;;;;;;5086394;28;20930;-76
2021/06/04 04:18:32;;;;;;;4.07;3.53;;;20.30;1.00;;;;;;5087549;28;20450;-77
2021/06/04 04:21:02;;;;;;;3.20;2.77;;;20.30;1.00;;;;;;5089093;28;21164;-78
2021/06/04 04:23:33;;;;;;;3.27;2.97;;;20.30;1.00;;;;;;5088683;28;20445;-77
2021/06/04 04:26:01;;;;;;;3.60;3.40;;;20.30;1.00;;;;;;5085023;28;21365;-77
2021/06/04 04:28:31;;;;;;;6.43;5.30;;;20.30;1.00;;;;;;5083619;28;20533;-77
2021/06/04 04:31:00;;;;;;;3.60;2.93;;;20.30;40.60;;;;;;5088941;28;20450;-77
2021/06/04 04:33:29;;;;;;;4.77;3.10;;;20.30;99.90;;;;;;5086900;28;20831;-77
2021/06/04 04:35:58;;;;;;;4.23;3.83;;;20.40;95.20;;;;;;5089049;28;20466;-77
2021/06/04 04:38:26;;;;;;;4.53;3.33;;;20.40;90.80;;;;;;5087005;28;20458;-79
2021/06/04 04:41:00;;;;;;;4.80;4.50;;;20.40;1.00;;;;;;5088881;28;21235;-79
2021/06/04 04:43:30;;;;;;;4.73;4.37;;;20.40;1.00;;;;;;5086188;28;20857;-79
2021/06/04 04:45:57;;;;;;;4.00;3.60;;;20.40;99.90;;;;;;5087155;28;20478;-78
2021/06/04 04:48:25;;;;;;;4.40;4.00;;;20.40;99.90;;;;;;5088161;28;20527;-79
2021/06/04 04:50:53;;;;;;;5.73;4.70;;;20.40;1.00;;;;;;5088849;28;20457;-77
2021/06/04 04:53:23;;;;;;;4.40;4.00;;;20.50;1.00;;;;;;5083482;28;20480;-77
2021/06/04 04:55:51;;;;;;;5.80;4.40;;;20.50;1.00;;;;;;5087244;28;20470;-79
2021/06/04 04:58:20;;;;;;;4.17;3.87;;;20.50;1.00;;;;;;5085789;28;20506;-78
2021/06/04 05:00:48;;;;;;;4.57;4.17;;;20.60;1.00;;;;;;5088797;28;20445;-75
2021/06/04 05:03:17;;;;;;;6.17;4.43;;;20.60;1.00;;;;;;5083894;28;20454;-76
2021/06/04 05:05:45;;;;;;;4.50;4.10;;;20.60;1.00;;;;;;5085948;28;20470;-75
2021/06/04 05:08:13;;;;;;;7.47;4.30;;;20.60;46.60;;;;;;5086330;28;20503;-79
2021/06/04 05:10:42;;;;;;;3.80;3.60;;;20.60;99.90;;;;;;5088330;28;20968;-76
2021/06/04 05:13:09;;;;;;;5.07;4.13;;;20.60;26.70;;;;;;5084057;28;20473;-76
2021/06/04 05:15:39;;;;;;;4.23;3.83;;;20.70;99.90;;;;;;5084673;28;20469;-77
2021/06/04 05:18:09;;;;;;;5.90;4.60;;;20.60;99.90;;;;;;5084968;28;20446;-75
2021/06/04 05:20:37;;;;;;;5.30;4.80;;;20.60;99.90;;;;;;5085020;28;20461;-77
2021/06/04 05:23:06;;;;;;;4.67;4.27;;;20.60;99.90;;;;;;5085795;28;20457;-75
2021/06/04 05:25:36;;;;;;;4.77;4.37;;;20.60;99.90;;;;;;5083891;28;20472;-78
2021/06/04 05:28:10;;;;;;;4.40;4.10;;;20.50;99.90;;;;;;5069143;28;20457;-75
2021/06/04 05:30:40;;;;;;;3.87;3.63;;;20.60;99.90;;;;;;5086362;28;20504;-76
2021/06/04 05:33:09;;;;;;;4.60;4.17;;;20.60;1.00;;;;;;5086442;28;20562;-77
2021/06/04 05:35:37;;;;;;;5.80;5.40;;;20.60;99.90;;;;;;5086234;28;20497;-77
2021/06/04 05:38:05;;;;;;;4.80;4.40;;;20.70;70.40;;;;;;5081528;28;20535;-79
2021/06/04 05:40:35;;;;;;;4.13;3.83;;;20.70;54.80;;;;;;5082304;28;20446;-78
2021/06/04 05:43:04;;;;;;;4.90;4.60;;;20.70;99.90;;;;;;5084691;28;20445;-78
2021/06/04 05:45:38;;;;;;;4.50;4.10;;;20.80;1.00;;;;;;5083778;28;21104;-79
2021/06/04 05:48:07;;;;;;;4.40;4.00;;;20.80;1.00;;;;;;5087305;28;20499;-74
2021/06/04 05:50:38;;;;;;;3.80;3.37;;;20.90;1.00;;;;;;5085619;28;21038;-75
2021/06/04 05:53:08;;;;;;;3.80;3.23;;;21.00;1.00;;;;;;5085422;28;21091;-78
2021/06/04 05:55:37;;;;;;;3.80;3.50;;;21.00;99.90;;;;;;5084107;28;20505;-76
2021/06/04 05:58:05;;;;;;;3.97;3.53;;;21.10;45.70;;;;;;5085506;28;20879;-74
2021/06/04 06:00:40;;;;;;;3.77;3.17;;;21.20;1.00;;;;;;5085263;28;20478;-79
2021/06/04 06:03:08;;;;;;;2.87;2.67;;;21.30;1.00;;;;;;5069065;28;20431;-79
2021/06/04 06:05:36;;;;;;;3.30;3.00;;;21.30;1.00;;;;;;5086004;28;20491;-75
2021/06/04 06:08:03;;;;;;;3.07;2.87;;;21.40;99.90;;;;;;5081932;28;20993;-78
2021/06/04 06:10:31;;;;;;;3.60;2.97;;;21.50;1.00;;;;;;5082340;28;20463;-81
2021/06/04 06:12:59;;;;;;;5.50;3.13;;;21.50;99.90;;;;;;5086812;28;20482;-78
2021/06/04 06:15:28;;;;;;;3.13;2.87;;;21.60;99.90;;;;;;5088675;28;21175;-77
2021/06/04 06:17:58;;;;;;;3.57;3.27;;;21.60;99.90;;;;;;5087301;28;20464;-78
2021/06/04 06:20:29;;;;;;;4.60;3.20;;;21.60;99.90;;;;;;5082386;28;20457;-79
2021/06/04 06:22:58;;;;;;;3.67;3.30;;;21.70;99.90;;;;;;5083973;28;20463;-77
2021/06/04 06:25:29;;;;;;;3.27;3.07;;;21.70;99.90;;;;;;5086545;28;20526;-77
2021/06/04 06:27:57;;;;;;;3.27;3.07;;;21.70;99.90;;;;;;5092841;28;20462;-77
2021/06/04 06:30:28;;;;;;;3.97;2.90;;;21.70;99.90;;;;;;5086147;28;20464;-77
2021/06/04 06:32:58;;;;;;;3.30;3.10;;;21.80;99.90;;;;;;5085037;28;20479;-79
2021/06/04 06:35:30;;;;;;;4.00;3.60;;;21.80;99.90;;;;;;5087075;28;21029;-79
2021/06/04 06:37:58;;;;;;;4.87;3.53;;;21.90;99.90;;;;;;5088915;28;20503;-75
2021/06/04 06:40:26;;;;;;;4.10;3.57;;;21.90;99.90;;;;;;5085611;28;20454;-77
2021/06/04 06:42:54;;;;;;;4.70;3.60;;;21.90;99.90;;;;;;5084986;28;20928;-79
2021/06/04 06:45:24;;;;;;;4.63;4.23;;;21.90;99.90;;;;;;5082253;28;20474;-78
2021/06/04 06:47:54;;;;;;;6.77;4.07;;;21.90;99.90;;;;;;5088234;28;20459;-79
2021/06/04 06:50:28;;;;;;;6.30;5.27;;;21.90;99.90;;;;;;5087284;28;20459;-81
2021/06/04 06:52:55;;;;;;;5.00;4.60;;;21.80;99.90;;;;;;5088010;28;20476;-73
2021/06/04 06:55:24;;;;;;;5.07;4.67;;;21.90;99.90;;;;;;5087383;28;20470;-79
2021/06/04 06:57:52;;;;;;;7.20;4.67;;;21.80;99.90;;;;;;5089916;28;20522;-76
2021/06/04 07:00:25;;;;;;;11.00;5.18;;;21.90;99.90;;;;;;5090184;28;20452;-77
2021/06/04 07:02:52;;;;;;;4.50;3.57;;;21.70;99.90;;;;;;5087990;28;20235;-78
2021/06/04 07:05:21;;;;;;;5.90;4.20;;;22.00;99.90;;;;;;5089649;28;20483;-78
2021/06/04 07:07:50;;;;;;;5.57;3.63;;;22.00;99.90;;;;;;5096904;28;20487;-79
2021/06/04 07:10:23;;;;;;;3.70;3.30;;;22.10;99.90;;;;;;5122248;27;20464;-75
2021/06/04 07:12:51;;;;;;;5.30;3.80;;;22.10;99.90;;;;;;5089393;28;20460;-76
2021/06/04 07:15:21;;;;;;;4.00;2.67;;;22.20;99.90;;;;;;5087623;28;20478;-81
2021/06/04 07:17:53;;;;;;;3.47;3.27;;;22.30;50.10;;;;;;5089743;28;20909;-83
2021/06/04 07:20:23;;;;;;;2.40;2.20;;;22.30;1.00;;;;;;5087869;28;20950;-76
2021/06/04 07:22:54;;;;;;;2.83;2.63;;;22.40;1.00;;;;;;5089209;28;20437;-77
2021/06/04 07:25:25;;;;;;;4.13;3.20;;;22.40;1.00;;;;;;5096284;28;20585;-77
2021/06/04 07:27:54;;;;;;;3.90;2.60;;;22.50;1.00;;;;;;5086427;28;20467;-76
2021/06/04 07:30:24;;;;;;;3.10;2.90;;;22.60;1.00;;;;;;5086121;28;20468;-76
2021/06/04 07:32:52;;;;;;;2.80;2.40;;;22.70;1.00;;;;;;5086396;28;20538;-77
2021/06/04 07:35:24;;;;;;;2.30;2.10;;;22.70;1.00;;;;;;5084119;28;20485;-78
2021/06/04 07:37:53;;;;;;;2.77;2.57;;;22.80;1.00;;;;;;5083617;28;21015;-75
2021/06/04 07:40:24;;;;;;;3.90;2.50;;;22.90;1.00;;;;;;5087947;28;20449;-74
2021/06/04 07:42:52;;;;;;;2.40;2.20;;;22.90;1.00;;;;;;5086440;28;20449;-76
2021/06/04 07:45:25;;;;;;;2.10;2.00;;;23.00;1.00;;;;;;5084824;28;20494;-79
2021/06/04 07:47:53;;;;;;;3.60;2.63;;;23.00;1.00;;;;;;5086414;28;21155;-76
2021/06/04 07:50:22;;;;;;;2.17;1.80;;;23.00;1.00;;;;;;5080698;28;20461;-75
2021/06/04 07:52:49;;;;;;;5.53;1.90;;;23.10;99.90;;;;;;5093090;28;20496;-76
2021/06/04 07:55:18;;;;;;;3.53;1.80;;;23.10;99.90;;;;;;5087347;28;20484;-77
2021/06/04 07:57:46;;;;;;;5.73;2.17;;;23.20;1.00;;;;;;5087195;28;20499;-77
2021/06/04 08:00:19;;;;;;;2.30;1.60;;;23.30;99.90;;;;;;5087598;28;20456;-77
2021/06/04 08:02:48;;;;;;;3.90;1.40;;;23.20;99.90;;;;;;5088393;28;20480;-79
2021/06/04 08:05:16;;;;;;;2.03;1.80;;;23.30;99.90;;;;;;5087167;28;20507;-77
2021/06/04 08:07:44;;;;;;;2.10;1.90;;;23.40;99.90;;;;;;5086104;28;20518;-74
2021/06/04 08:10:14;;;;;;;4.30;1.80;;;23.50;99.90;;;;;;5121002;27;20455;-75
2021/06/04 08:12:43;;;;;;;2.37;1.90;;;23.50;99.90;;;;;;5084864;28;20453;-76
2021/06/04 08:15:14;;;;;;;2.00;1.80;;;23.50;99.90;;;;;;5087569;28;20469;-77
2021/06/04 08:17:42;;;;;;;1.47;1.37;;;23.50;99.90;;;;;;5083258;28;21009;-77
2021/06/04 08:20:12;;;;;;;2.60;1.67;;;23.60;99.90;;;;;;5068084;28;20500;-77
2021/06/04 08:22:42;;;;;;;4.03;2.90;;;23.60;99.90;;;;;;5074791;28;20454;-77
2021/06/04 08:25:12;;;;;;;3.73;1.90;;;23.60;99.90;;;;;;5085222;28;20989;-78
2021/06/04 08:27:40;;;;;;;2.40;2.20;;;23.60;99.90;;;;;;5085577;28;20458;-77
2021/06/04 08:30:12;;;;;;;2.00;1.80;;;23.70;99.90;;;;;;5073285;28;20458;-78
2021/06/04 08:32:40;;;;;;;3.13;1.77;;;23.70;99.90;;;;;;5089141;28;20442;-77
2021/06/04 08:35:10;;;;;;;1.60;1.50;;;23.70;99.90;;;;;;5090215;28;20469;-76
2021/06/04 08:37:41;;;;;;;2.40;1.70;;;23.80;99.90;;;;;;5085197;28;20444;-76
2021/06/04 08:40:14;;;;;;;1.83;1.53;;;23.80;99.90;;;;;;5081160;28;20457;-78
2021/06/04 08:42:54;;;;;;;1.67;1.57;;;23.80;99.90;;;;;;5088519;28;21016;-74
2021/06/04 08:45:32;;;;;;;2.10;1.87;;;23.90;99.90;;;;;;5072533;28;20485;-76
2021/06/04 08:48:16;;;;;;;2.10;1.80;;;23.90;99.90;;;;;;5086105;28;20818;-76
2021/06/04 08:50:58;;;;;;;2.20;1.70;;;23.90;99.90;;;;;;5087857;28;20468;-76
2021/06/04 08:53:31;;;;;;;3.63;2.10;;;24.00;99.90;;;;;;5087686;28;20536;-79
2021/06/04 08:56:03;;;;;;;2.23;1.93;;;24.00;99.90;;;;;;5089264;28;20481;-77
2021/06/04 08:58:46;;;;;;;2.67;2.00;;;24.00;99.90;;;;;;5087926;28;20514;-77
2021/06/04 09:01:20;;;;;;;4.15;2.03;;;24.10;99.90;;;;;;5088100;28;20500;-78
2021/06/04 09:03:52;;;;;;;5.40;2.07;;;24.10;99.90;;;;;;5093606;28;20187;-80
2021/06/04 09:06:35;;;;;;;2.73;2.13;;;24.20;99.90;;;;;;5085678;28;20515;-79
2021/06/04 09:09:10;;;;;;;1.97;1.87;;;24.20;99.90;;;;;;5087222;28;20449;-80
2021/06/04 09:11:40;;;;;;;4.13;2.00;;;24.20;99.90;;;;;;5087215;28;20457;-79
2021/06/04 09:14:08;;;;;;;3.00;2.63;;;24.30;99.90;;;;;;5088096;28;20504;-80
2021/06/04 09:16:54;;;;;;;2.37;2.17;;;24.40;99.90;;;;;;5082616;28;20846;-80
2021/06/04 09:19:27;;;;;;;2.47;2.27;;;24.50;99.90;;;;;;5083819;28;20471;-78
2021/06/04 09:21:55;;;;;;;3.10;2.30;;;24.50;99.90;;;;;;5072313;28;20450;-78
2021/06/04 09:24:29;;;;;;;4.13;2.63;;;24.70;99.90;;;;;;5083699;28;20269;-78
2021/06/04 09:26:57;;;;;;;5.83;2.93;;;24.70;99.90;;;;;;5086161;28;20469;-77
2021/06/04 09:29:26;;;;;;;2.50;2.10;;;24.80;99.90;;;;;;5080553;28;20444;-77
2021/06/04 09:31:58;;;;;;;2.93;2.20;;;24.90;99.90;;;;;;5081694;28;20808;-79
2021/06/04 09:34:34;;;;;;;2.03;1.87;;;24.90;99.90;;;;;;5088304;28;21024;-79
2021/06/04 09:37:05;;;;;;;2.37;2.20;;;24.80;99.90;;;;;;5079687;28;20457;-80
2021/06/04 09:39:39;;;;;;;2.20;1.70;;;24.80;99.90;;;;;;5084374;28;20937;-80
2021/06/04 09:42:22;;;;;;;3.00;1.90;;;24.90;99.90;;;;;;5084257;28;20503;-76
2021/06/04 09:45:03;;;;;;;3.00;2.20;;;25.00;99.90;;;;;;5082410;28;20473;-78
2021/06/04 09:47:38;;;;;;;3.80;2.83;;;25.10;99.90;;;;;;5073956;28;21016;-76
2021/06/04 09:50:30;;;;;;;4.90;2.57;;;25.20;99.90;;;;;;5086134;28;20456;-78
2021/06/04 09:53:05;;;;;;;2.53;1.80;;;25.20;99.90;;;;;;5082262;28;21006;-77
2021/06/04 09:55:34;;;;;;;3.13;2.40;;;25.30;99.90;;;;;;5088353;28;20889;-77
2021/06/04 09:58:16;;;;;;;5.07;2.90;;;25.30;99.90;;;;;;5087878;28;20462;-78
2021/06/04 10:00:46;;;;;;;2.10;1.90;;;25.30;99.90;;;;;;5089109;28;20449;-80
2021/06/04 10:03:28;;;;;;;4.23;2.37;;;25.30;99.90;;;;;;5084204;28;20507;-78
2021/06/04 10:06:21;;;;;;;2.97;2.63;;;25.30;99.90;;;;;;5070355;28;20544;-79
2021/06/04 10:08:52;;;;;;;4.20;2.20;;;25.20;99.90;;;;;;5087592;28;20446;-78
2021/06/04 10:11:24;;;;;;;6.50;2.80;;;25.30;99.90;;;;;;5089937;28;20507;-78
2021/06/04 10:13:56;;;;;;;2.10;1.73;;;25.40;99.90;;;;;;5091249;28;20501;-76
2021/06/04 10:16:47;;;;;;;4.30;2.00;;;25.40;99.90;;;;;;5085111;28;21028;-76
2021/06/04 10:19:29;;;;;;;3.00;1.83;;;25.30;99.90;;;;;;5084289;28;21281;-78
2021/06/04 10:22:15;;;;;;;3.10;1.93;;;25.30;99.90;;;;;;5087665;28;20503;-77
2021/06/04 10:24:45;;;;;;;8.73;2.43;;;25.30;99.90;;;;;;5091215;28;20507;-76
2021/06/04 10:27:15;;;;;;;3.07;1.97;;;25.30;99.90;;;;;;5089688;28;20992;-77
2021/06/04 10:29:57;;;;;;;9.53;2.03;;;25.20;99.90;;;;;;5120804;27;20449;-74
2021/06/04 10:32:31;;;;;;;2.10;1.90;;;25.20;99.90;;;;;;5085156;28;20453;-76
2021/06/04 10:35:21;;;;;;;3.03;1.80;;;25.20;99.90;;;;;;5090867;28;20485;-79
2021/06/04 10:37:55;;;;;;;1.90;1.57;;;25.20;99.90;;;;;;5084543;28;20458;-79
2021/06/04 10:40:30;;;;;;;3.17;1.63;;;25.10;99.90;;;;;;5088005;28;20465;-79
2021/06/04 10:43:34;;;;;;;1.73;1.60;;;25.00;99.90;;;;;;5092238;28;20502;-78
2021/06/04 10:46:13;;;;;;;1.90;1.60;;;25.20;99.90;;;;;;5092016;28;20534;-80
2021/06/04 10:48:57;;;;;;;2.90;1.60;;;25.30;99.90;;;;;;5070070;28;20439;-81
2021/06/04 10:51:36;;;;;;;2.10;1.90;;;25.50;99.90;;;;;;5083085;28;20503;-79
2021/06/04 10:54:21;;;;;;;2.53;1.83;;;25.50;99.90;;;;;;5092731;28;20481;-79
2021/06/04 10:56:56;;;;;;;3.83;1.67;;;25.50;99.90;;;;;;5094152;28;20485;-81
2021/06/04 10:59:34;;;;;;;2.60;1.60;;;25.50;99.90;;;;;;5093475;28;20445;-79
2021/06/04 11:02:15;;;;;;;2.27;1.50;;;25.60;99.90;;;;;;5093699;28;20992;-78
2021/06/04 11:04:55;;;;;;;3.00;1.77;;;25.50;99.90;;;;;;5093898;28;20501;-77
2021/06/04 11:07:32;;;;;;;2.07;1.60;;;25.60;99.90;;;;;;5125954;27;20516;-82
2021/06/04 11:10:12;;;;;;;2.07;1.50;;;25.60;99.90;;;;;;5092487;28;20468;-79
2021/06/04 11:12:50;;;;;;;2.53;1.60;;;25.70;99.90;;;;;;5091756;28;20495;-79
2021/06/04 11:15:25;;;;;;;2.70;2.13;;;25.90;99.90;;;;;;5093144;28;21168;-78
2021/06/04 11:18:00;;;;;;;3.10;2.03;;;25.90;99.90;;;;;;5090811;28;20460;-78
2021/06/04 11:20:34;;;;;;;3.13;2.60;;;25.90;99.90;;;;;;5083976;28;20448;-81
2021/06/04 11:23:09;;;;;;;3.17;1.90;;;25.90;99.90;;;;;;5092947;28;20437;-78
2021/06/04 11:25:51;;;;;;;1.97;1.83;;;26.00;99.90;;;;;;5092873;28;20476;-77
2021/06/04 11:28:40;;;;;;;1.60;1.50;;;26.10;99.90;;;;;;5092198;28;20451;-78
2021/06/04 11:31:15;;;;;;;5.40;2.30;;;26.00;99.90;;;;;;5091050;28;20450;-79
2021/06/04 11:33:50;;;;;;;2.20;1.77;;;26.10;99.90;;;;;;5090220;28;20453;-77
2021/06/04 11:36:21;;;;;;;2.13;1.67;;;26.00;99.90;;;;;;5092137;28;20469;-78
2021/06/04 11:38:52;;;;;;;1.80;1.70;;;26.00;99.90;;;;;;5091879;28;20495;-78
2021/06/04 11:41:24;;;;;;;2.43;2.23;;;25.90;99.90;;;;;;5091402;28;20484;-82
2021/06/04 11:44:02;;;;;;;2.83;1.60;;;25.90;99.90;;;;;;5106809;28;20467;-78
2021/06/04 11:46:31;;;;;;;2.33;1.90;;;25.80;99.90;;;;;;5073465;28;20481;-78
2021/06/04 11:49:07;;;;;;;2.00;1.83;;;25.90;99.90;;;;;;5069139;28;20439;-78
2021/06/04 11:51:41;;;;;;;1.93;1.80;;;25.90;99.90;;;;;;5076833;28;20793;-78
2021/06/04 11:54:20;;;;;;;2.93;2.30;;;25.80;99.90;;;;;;5091522;28;20540;-78
2021/06/04 11:56:54;;;;;;;2.60;1.87;;;25.90;99.90;;;;;;5091695;28;20960;-78
2021/06/04 12:00:05;;;;;;;3.57;1.90;;;26.00;99.90;;;;;;5091342;28;20437;-77
2021/06/04 12:02:46;;;;;;;2.10;1.90;;;25.90;99.90;;;;;;5090921;28;20454;-81
2021/06/04 12:05:34;;;;;;;3.67;3.37;;;26.00;99.90;;;;;;5076536;28;20508;-78
2021/06/04 12:08:36;;;;;;;2.77;2.47;;;25.90;99.90;;;;;;5080400;28;20445;-81
2021/06/04 12:11:28;;;;;;;5.03;2.50;;;25.90;99.90;;;;;;5088437;28;20549;-78
2021/06/04 12:14:21;;;;;;;2.47;2.13;;;26.00;99.90;;;;;;5091366;28;20441;-78
2021/06/04 12:17:31;;;;;;;2.00;1.80;;;26.00;99.90;;;;;;5084702;28;21005;-80
2021/06/04 12:20:21;;;;;;;2.03;1.70;;;26.10;99.90;;;;;;5107697;27;20484;-78
2021/06/04 12:22:50;;;;;;;2.20;1.67;;;26.20;99.90;;;;;;5091036;28;20441;-80
2021/06/04 12:25:42;;;;;;;2.33;1.90;;;26.20;99.90;;;;;;5090173;28;20450;-78
2021/06/04 12:28:32;;;;;;;4.43;2.03;;;26.30;99.90;;;;;;5090493;28;20737;-79
2021/06/04 12:31:09;;;;;;;4.00;1.53;;;26.30;99.90;;;;;;5090489;28;20457;-78
2021/06/04 12:33:51;;;;;;;3.23;1.80;;;26.40;99.90;;;;;;5091239;28;20430;-79
2021/06/04 12:36:54;;;;;;;2.37;1.90;;;26.40;99.90;;;;;;5088965;28;20476;-78
2021/06/04 12:39:35;;;;;;;2.20;2.00;;;26.40;99.90;;;;;;5089704;28;20480;-78
2021/06/04 12:42:07;;;;;;;2.93;2.00;;;26.40;99.90;;;;;;5089633;28;20528;-78
2021/06/04 12:44:36;;;;;;;2.13;1.97;;;26.50;99.90;;;;;;5090350;28;20511;-79
2021/06/04 12:47:06;;;;;;;3.23;2.03;;;26.50;99.90;;;;;;5090399;28;20457;-78
2021/06/04 12:49:34;;;;;;;2.40;2.07;;;26.60;99.90;;;;;;5085947;28;20477;-79
2021/06/04 12:52:02;;;;;;;2.83;1.83;;;26.60;99.90;;;;;;5090758;28;20494;-78
2021/06/04 12:54:30;;;;;;;2.73;2.30;;;26.60;99.90;;;;;;5089437;28;20478;-79
2021/06/04 12:57:00;;;;;;;2.00;1.90;;;26.50;99.90;;;;;;5091148;28;20503;-78
2021/06/04 12:59:30;;;;;;;2.87;1.80;;;26.40;99.90;;;;;;5089208;28;20460;-79
2021/06/04 13:02:02;;;;;;;3.53;2.00;;;26.40;99.90;;;;;;5090760;28;20491;-79
2021/06/04 13:04:33;;;;;;;2.57;2.37;;;26.30;99.90;;;;;;5089289;28;20473;-80
2021/06/04 13:07:03;;;;;;;2.20;1.90;;;26.30;99.90;;;;;;5080980;28;20437;-78
2021/06/04 13:09:34;;;;;;;3.37;1.63;;;26.20;99.90;;;;;;5068981;28;20446;-79
2021/06/04 13:12:18;;;;;;;2.07;1.87;;;26.20;99.90;;;;;;5070417;28;20458;-80
2021/06/04 13:14:48;;;;;;;2.60;2.00;;;26.10;99.90;;;;;;5088005;28;20470;-79
2021/06/04 13:17:25;;;;;;;1.87;1.77;;;26.00;99.90;;;;;;5089009;28;20457;-79